createdAt,value
2017-09-14T00:01:07.207Z,86.29
2017-09-14T00:03:40.282Z,85.44
2017-09-14T00:06:09.865Z,86.59
2017-09-14T00:08:39.565Z,86.41
2017-09-14T00:11:13.118Z,85.71
2017-09-14T00:13:42.537Z,86.02
2017-09-14T00:16:13.206Z,86.45
2017-09-14T00:18:46.152Z,85.88
2017-09-14T00:21:16.338Z,85.81
2017-09-14T00:23:47.258Z,86.23
2017-09-14T00:26:16.901Z,86.50
2017-09-14T00:28:48.061Z,86.38
2017-09-14T00:31:18.119Z,86.30
2017-09-14T00:33:47.824Z,86.82
2017-09-14T00:36:17.956Z,86.48
2017-09-14T00:38:59.653Z,86.20
2017-09-14T00:41:29.127Z,85.93
2017-09-14T00:44:02.711Z,85.79
2017-09-14T00:46:34.437Z,85.87
2017-09-14T00:49:03.920Z,86.23
2017-09-14T00:51:35.437Z,86.00
2017-09-14T00:54:05.847Z,86.31
2017-09-14T00:56:37.032Z,85.89
2017-09-14T00:59:07.027Z,86.22
2017-09-14T01:01:39.683Z,86.68
2017-09-14T01:04:09.140Z,86.73
2017-09-14T01:06:38.905Z,86.76
2017-09-14T01:09:08.637Z,86.49
2017-09-14T01:11:39.794Z,86.60
2017-09-14T01:14:11.601Z,86.18
2017-09-14T01:16:42.932Z,86.72
2017-09-14T01:19:12.588Z,87.11
2017-09-14T01:21:42.971Z,87.35
2017-09-14T01:24:13.367Z,88.05
2017-09-14T01:26:43.587Z,88.20
2017-09-14T01:29:13.302Z,87.57
2017-09-14T01:31:43.055Z,88.08
2017-09-14T01:34:12.647Z,88.16
2017-09-14T01:36:42.647Z,88.56
2017-09-14T01:39:12.423Z,87.87
2017-09-14T01:41:41.939Z,87.80
2017-09-14T01:44:12.047Z,87.83
2017-09-14T01:46:41.462Z,88.25
2017-09-14T01:49:11.026Z,87.63
2017-09-14T01:51:41.044Z,88.15
2017-09-14T01:54:11.324Z,88.03
2017-09-14T01:56:40.695Z,87.37
2017-09-14T01:59:10.577Z,87.35
2017-09-14T02:01:40.116Z,88.06
2017-09-14T02:04:09.599Z,88.19
2017-09-14T02:06:39.471Z,87.27
2017-09-14T02:09:09.123Z,87.57
2017-09-14T02:11:39.086Z,87.51
2017-09-14T02:14:09.112Z,87.32
2017-09-14T02:16:38.944Z,87.59
2017-09-14T02:19:09.138Z,87.84
2017-09-14T02:21:38.915Z,87.81
2017-09-14T02:24:08.501Z,88.40
2017-09-14T02:26:39.356Z,88.63
2017-09-14T02:29:09.036Z,88.48
2017-09-14T02:31:38.929Z,88.54
2017-09-14T02:34:08.829Z,87.97
2017-09-14T02:36:38.452Z,88.49
2017-09-14T02:39:08.405Z,88.18
2017-09-14T02:41:38.379Z,88.16
2017-09-14T02:44:07.932Z,88.47
2017-09-14T02:46:38.924Z,87.53
2017-09-14T02:49:09.139Z,87.77
2017-09-14T02:51:38.545Z,87.27
2017-09-14T02:54:08.171Z,86.93
2017-09-14T02:56:38.807Z,86.88
2017-09-14T02:59:08.753Z,86.79
2017-09-14T03:01:38.607Z,86.52
2017-09-14T03:04:08.144Z,87.85
2017-09-14T03:06:38.139Z,87.57
2017-09-14T03:09:08.104Z,87.41
2017-09-14T03:11:38.755Z,88.14
2017-09-14T03:14:08.504Z,88.41
2017-09-14T03:16:38.551Z,88.23
2017-09-14T03:19:08.025Z,88.54
2017-09-14T03:21:38.115Z,88.46
2017-09-14T03:24:08.211Z,88.62
2017-09-14T03:26:39.426Z,88.81
2017-09-14T03:29:10.072Z,88.67
2017-09-14T03:31:39.553Z,88.33
2017-09-14T03:34:09.557Z,88.14
2017-09-14T03:36:38.996Z,88.31
2017-09-14T03:39:08.344Z,89.00
2017-09-14T03:41:41.392Z,88.30
2017-09-14T03:44:10.800Z,88.07
2017-09-14T03:46:40.495Z,87.80
2017-09-14T03:49:10.140Z,87.31
2017-09-14T03:51:39.504Z,87.48
2017-09-14T03:54:09.072Z,86.69
2017-09-14T03:56:40.189Z,86.94
2017-09-14T03:59:09.456Z,86.26
2017-09-14T04:01:39.779Z,86.46
2017-09-14T04:04:09.367Z,86.36
2017-09-14T04:06:39.299Z,87.16
2017-09-14T04:09:08.885Z,86.73
2017-09-14T04:11:40.687Z,86.97
2017-09-14T04:14:09.983Z,86.40
2017-09-14T04:16:39.214Z,87.06
2017-09-14T04:19:08.869Z,87.15
2017-09-14T04:21:39.464Z,87.11
2017-09-14T04:24:09.211Z,87.11
2017-09-14T04:26:39.976Z,87.36
2017-09-14T04:29:09.356Z,87.03
2017-09-14T04:31:42.487Z,87.14
2017-09-14T04:34:12.040Z,86.87
2017-09-14T04:36:41.391Z,87.19
2017-09-14T04:39:11.016Z,86.72
2017-09-14T04:41:41.075Z,86.41
2017-09-14T04:44:10.444Z,85.86
2017-09-14T04:46:39.886Z,85.89
2017-09-14T04:49:09.568Z,86.33
2017-09-14T04:51:39.456Z,86.79
2017-09-14T04:54:08.899Z,87.57
2017-09-14T04:56:39.408Z,87.34
2017-09-14T04:59:08.772Z,87.47
2017-09-14T05:01:39.188Z,86.85
2017-09-14T05:04:08.873Z,86.56
2017-09-14T05:06:39.169Z,86.35
2017-09-14T05:09:08.421Z,86.78
2017-09-14T05:11:41.146Z,86.30
2017-09-14T05:14:10.668Z,86.49
2017-09-14T05:16:40.483Z,85.98
2017-09-14T05:19:10.364Z,85.93
2017-09-14T05:23:04.697Z,86.17
2017-09-14T05:25:37.873Z,86.21
2017-09-14T05:28:07.948Z,86.41
2017-09-14T05:30:44.240Z,86.22
2017-09-14T05:33:14.002Z,86.60
2017-09-14T05:35:43.847Z,86.98
2017-09-14T05:38:13.116Z,86.11
2017-09-14T05:40:42.759Z,86.13
2017-09-14T05:43:12.024Z,85.61
2017-09-14T05:45:41.181Z,85.96
2017-09-14T05:48:13.300Z,86.37
2017-09-14T05:50:42.609Z,85.02
2017-09-14T05:53:13.296Z,85.15
2017-09-14T05:55:43.700Z,84.98
2017-09-14T05:58:21.349Z,84.83
2017-09-14T06:00:55.119Z,84.54
2017-09-14T06:03:29.944Z,85.00
2017-09-14T06:06:03.959Z,83.86
2017-09-14T06:08:34.223Z,84.47
2017-09-14T06:11:17.223Z,84.28
2017-09-14T06:14:01.383Z,83.55
2017-09-14T06:16:31.144Z,83.19
2017-09-14T06:19:05.868Z,82.66
2017-09-14T06:21:38.663Z,83.39
2017-09-14T06:24:08.423Z,83.39
2017-09-14T06:26:37.629Z,82.41
2017-09-14T06:29:07.319Z,81.17
2017-09-14T06:31:38.180Z,81.77
2017-09-14T06:34:07.437Z,80.96
2017-09-14T06:36:38.791Z,81.21
2017-09-14T06:39:08.408Z,81.13
2017-09-14T06:41:39.631Z,80.87
2017-09-14T06:44:09.062Z,80.66
2017-09-14T06:46:38.860Z,80.16
2017-09-14T06:49:08.860Z,80.48
2017-09-14T06:51:38.807Z,79.98
2017-09-14T06:54:08.419Z,79.97
2017-09-14T06:56:39.475Z,80.89
2017-09-14T06:59:09.435Z,81.44
2017-09-14T07:01:39.050Z,80.94
2017-09-14T07:04:08.597Z,81.30
2017-09-14T07:06:38.900Z,81.81
2017-09-14T07:09:08.415Z,80.42
2017-09-14T07:11:39.359Z,81.65
2017-09-14T07:14:08.883Z,81.16
2017-09-14T07:16:38.551Z,82.04
2017-09-14T07:19:08.207Z,80.60
2017-09-14T07:21:39.530Z,81.22
2017-09-14T07:24:08.905Z,81.19
2017-09-14T07:26:39.908Z,80.96
2017-09-14T07:29:09.886Z,79.67
2017-09-14T07:31:39.451Z,80.77
2017-09-14T07:34:09.115Z,80.74
2017-09-14T07:36:39.308Z,81.27
2017-09-14T07:39:08.811Z,80.93
2017-09-14T07:41:38.723Z,81.62
2017-09-14T07:44:08.598Z,81.18
2017-09-14T07:46:38.339Z,79.58
2017-09-14T07:49:07.896Z,81.05
2017-09-14T07:51:40.683Z,79.35
2017-09-14T07:54:10.116Z,80.15
2017-09-14T07:56:40.416Z,79.09
2017-09-14T07:59:10.291Z,80.07
2017-09-14T08:01:48.147Z,80.32
2017-09-14T08:04:20.173Z,79.61
2017-09-14T08:06:50.851Z,79.88
2017-09-14T08:09:21.211Z,80.36
2017-09-14T08:12:03.107Z,80.68
2017-09-14T08:14:37.612Z,80.90
2017-09-14T08:17:07.548Z,80.96
2017-09-14T08:19:37.972Z,80.53
2017-09-14T08:22:09.419Z,80.41
2017-09-14T08:24:40.259Z,80.26
2017-09-14T08:27:11.354Z,80.99
2017-09-14T08:29:42.237Z,81.45
2017-09-14T08:32:16.068Z,81.73
2017-09-14T08:34:48.383Z,82.68
2017-09-14T08:37:19.364Z,83.84
2017-09-14T08:39:51.165Z,84.71
2017-09-14T08:42:21.816Z,84.06
2017-09-14T08:44:52.510Z,84.61
2017-09-14T08:47:22.603Z,84.69
2017-09-14T08:49:52.311Z,84.66
2017-09-14T08:52:25.346Z,85.58
2017-09-14T08:54:57.465Z,85.94
2017-09-14T08:57:29.503Z,86.13
2017-09-14T08:59:59.739Z,85.89
2017-09-14T09:02:31.909Z,85.75
2017-09-14T09:05:01.993Z,85.58
2017-09-14T09:07:31.710Z,85.96
2017-09-14T09:10:01.757Z,86.00
2017-09-14T09:12:32.578Z,85.91
2017-09-14T09:15:02.648Z,85.44
2017-09-14T09:17:36.014Z,86.51
2017-09-14T09:20:05.276Z,85.60
2017-09-14T09:22:35.916Z,85.86
2017-09-14T09:25:07.956Z,85.97
2017-09-14T09:27:47.325Z,86.34
2017-09-14T09:30:22.423Z,86.01
2017-09-14T09:32:54.895Z,86.20
2017-09-14T09:35:40.955Z,85.85
2017-09-14T09:38:12.481Z,85.65
2017-09-14T09:40:46.140Z,85.58
2017-09-14T09:43:19.860Z,84.98
2017-09-14T09:45:50.618Z,85.27
2017-09-14T09:48:23.508Z,85.96
2017-09-14T09:51:16.300Z,86.29
2017-09-14T09:53:46.203Z,86.19
2017-09-14T09:56:15.835Z,85.99
2017-09-14T09:58:45.502Z,85.94
2017-09-14T10:01:19.465Z,85.54
2017-09-14T10:03:48.951Z,85.45
2017-09-14T10:06:18.251Z,85.98
2017-09-14T10:08:50.976Z,85.89
2017-09-14T10:11:20.565Z,85.16
2017-09-14T10:13:49.771Z,86.24
2017-09-14T10:16:19.519Z,84.77
2017-09-14T10:19:10.791Z,84.61
2017-09-14T10:21:41.396Z,85.27
2017-09-14T10:24:10.691Z,85.00
2017-09-14T10:26:42.112Z,86.23
2017-09-14T10:29:11.651Z,85.07
2017-09-14T10:31:41.172Z,85.11
2017-09-14T10:34:11.976Z,84.78
2017-09-14T10:36:41.438Z,84.61
2017-09-14T10:39:11.082Z,84.13
2017-09-14T10:41:42.156Z,84.19
2017-09-14T10:44:11.930Z,84.36
2017-09-14T10:46:51.151Z,84.36
2017-09-14T10:49:22.553Z,84.14
2017-09-14T10:51:53.345Z,85.12
2017-09-14T10:54:26.148Z,85.02
2017-09-14T10:56:59.423Z,83.21
2017-09-14T10:59:31.445Z,82.90
2017-09-14T11:02:04.792Z,80.95
2017-09-14T11:04:41.306Z,83.07
2017-09-14T11:07:21.225Z,81.73
2017-09-14T11:09:53.607Z,81.19
2017-09-14T11:12:24.591Z,80.53
2017-09-14T11:14:57.116Z,81.05
2017-09-14T11:17:26.645Z,79.10
2017-09-14T11:19:55.900Z,78.66
2017-09-14T11:22:25.493Z,78.31
2017-09-14T11:24:54.707Z,77.40
2017-09-14T11:27:23.946Z,77.07
2017-09-14T11:29:53.533Z,75.06
2017-09-14T11:32:24.557Z,76.29
2017-09-14T11:34:54.126Z,75.94
2017-09-14T11:37:23.832Z,74.88
2017-09-14T11:39:53.504Z,74.09
2017-09-14T11:42:22.779Z,74.54
2017-09-14T11:44:52.432Z,74.54
2017-09-14T11:47:21.731Z,74.61
2017-09-14T11:49:51.631Z,73.89
2017-09-14T11:52:21.287Z,74.13
2017-09-14T11:54:50.587Z,73.70
2017-09-14T11:57:19.974Z,72.92
2017-09-14T11:59:50.706Z,74.39
2017-09-14T12:02:20.125Z,73.89
2017-09-14T12:04:49.574Z,73.39
2017-09-14T12:07:19.056Z,75.26
2017-09-14T12:09:48.492Z,76.44
2017-09-14T12:12:18.036Z,74.81
2017-09-14T12:14:47.587Z,75.33
2017-09-14T12:20:07.633Z,74.36
2017-09-14T12:22:38.179Z,73.30
2017-09-14T12:25:07.479Z,73.87
2017-09-14T12:27:39.856Z,71.07
2017-09-14T12:30:09.308Z,70.60
2017-09-14T12:32:39.004Z,73.22
2017-09-14T12:35:09.031Z,70.43
2017-09-14T12:37:39.147Z,72.87
2017-09-14T12:40:08.667Z,72.31
2017-09-14T12:42:38.599Z,70.58
2017-09-14T12:45:08.284Z,68.74
2017-09-14T12:47:39.463Z,67.95
2017-09-14T12:50:09.420Z,64.03
2017-09-14T12:52:39.924Z,66.46
2017-09-14T12:55:09.543Z,67.34
2017-09-14T12:57:39.487Z,65.49
2017-09-14T13:00:09.086Z,63.30
2017-09-14T13:02:39.848Z,64.81
2017-09-14T13:05:10.287Z,65.33
2017-09-14T13:07:39.812Z,65.98
2017-09-14T13:10:18.048Z,64.56
2017-09-14T13:12:47.560Z,65.12
2017-09-14T13:15:18.744Z,65.92
2017-09-14T13:17:48.023Z,65.88
2017-09-14T13:20:17.696Z,67.01
2017-09-14T13:22:46.908Z,64.21
2017-09-14T13:25:16.123Z,63.55
2017-09-14T13:27:49.826Z,63.46
2017-09-14T13:30:19.679Z,63.82
2017-09-14T13:32:49.280Z,64.91
2017-09-14T13:35:18.503Z,65.99
2017-09-14T13:37:47.995Z,63.69
2017-09-14T13:40:18.066Z,64.99
2017-09-14T13:42:47.564Z,64.30
2017-09-14T13:45:17.030Z,66.14
2017-09-14T13:47:46.543Z,66.02
2017-09-14T13:50:16.045Z,66.69
2017-09-14T13:52:45.521Z,65.97
2017-09-14T13:55:15.218Z,64.04
2017-09-14T13:57:44.435Z,65.05
2017-09-14T14:00:14.014Z,64.06
2017-09-14T14:02:43.613Z,65.16
2017-09-14T14:05:12.911Z,64.78
2017-09-14T14:07:42.112Z,66.88
2017-09-14T14:10:12.020Z,66.97
2017-09-14T14:12:41.320Z,66.06
2017-09-14T14:15:10.892Z,65.64
2017-09-14T14:17:40.411Z,64.74
2017-09-14T14:20:09.656Z,64.90
2017-09-14T14:22:38.887Z,64.47
2017-09-14T14:25:08.447Z,65.01
2017-09-14T14:27:37.619Z,65.21
2017-09-14T14:30:06.889Z,63.47
2017-09-14T14:32:36.455Z,63.90
2017-09-14T14:35:06.540Z,63.33
2017-09-14T14:37:36.939Z,62.10
2017-09-14T14:40:06.605Z,62.20
2017-09-14T14:42:37.824Z,62.17
2017-09-14T14:45:07.946Z,62.38
2017-09-14T14:47:39.064Z,62.09
2017-09-14T14:50:08.280Z,64.73
2017-09-14T14:52:38.476Z,66.09
2017-09-14T14:55:08.104Z,66.26
2017-09-14T14:57:38.836Z,66.40
2017-09-14T15:00:09.180Z,65.54
2017-09-14T15:02:39.570Z,66.01
2017-09-14T15:05:08.769Z,65.46
2017-09-14T15:07:39.281Z,66.12
2017-09-14T15:10:09.594Z,64.32
2017-09-14T15:12:39.284Z,63.88
2017-09-14T15:15:08.624Z,64.26
2017-09-14T15:17:39.536Z,64.81
2017-09-14T15:20:08.820Z,66.80
2017-09-14T15:22:39.263Z,69.57
2017-09-14T15:25:08.797Z,73.40
2017-09-14T15:27:39.519Z,74.03
2017-09-14T15:30:08.760Z,74.32
2017-09-14T15:32:38.837Z,74.04
2017-09-14T15:35:08.093Z,75.67
2017-09-14T15:37:42.836Z,75.67
2017-09-14T15:40:16.387Z,77.79
2017-09-14T15:42:51.044Z,76.67
2017-09-14T15:45:40.801Z,77.85
2017-09-14T15:48:14.252Z,79.54
2017-09-14T15:50:48.735Z,79.20
2017-09-14T15:53:18.011Z,77.95
2017-09-14T15:55:47.288Z,79.75
2017-09-14T15:58:16.804Z,78.03
2017-09-14T16:00:46.316Z,78.64
2017-09-14T16:03:15.729Z,78.40
2017-09-14T16:05:45.354Z,79.59
2017-09-14T16:08:14.992Z,78.76
2017-09-14T16:10:44.339Z,78.42
2017-09-14T16:13:13.811Z,79.15
2017-09-14T16:15:43.066Z,78.63
2017-09-14T16:18:12.599Z,79.44
2017-09-14T16:20:42.123Z,81.17
2017-09-14T16:23:11.420Z,80.27
2017-09-14T16:25:40.757Z,79.81
2017-09-14T16:28:10.364Z,80.89
2017-09-14T16:30:39.738Z,81.24
2017-09-14T16:33:10.125Z,81.71
2017-09-14T16:35:40.280Z,81.41
2017-09-14T16:38:09.551Z,81.45
2017-09-14T16:40:39.050Z,80.87
2017-09-14T16:43:08.949Z,80.34
2017-09-14T16:45:38.784Z,79.85
2017-09-14T16:48:08.184Z,79.57
2017-09-14T16:50:39.550Z,79.59
2017-09-14T16:53:08.923Z,80.31
2017-09-14T16:55:39.594Z,79.03
2017-09-14T16:58:09.445Z,78.90
2017-09-14T17:00:39.325Z,79.93
2017-09-14T17:03:08.640Z,79.16
2017-09-14T17:05:39.344Z,78.63
2017-09-14T17:08:09.123Z,78.45
2017-09-14T17:10:39.113Z,78.69
2017-09-14T17:13:09.107Z,77.90
2017-09-14T17:15:38.704Z,77.55
2017-09-14T17:18:08.242Z,78.41
2017-09-14T17:20:38.872Z,78.04
2017-09-14T17:23:08.460Z,78.59
2017-09-14T17:25:38.535Z,77.13
2017-09-14T17:28:08.279Z,77.44
2017-09-14T17:30:39.224Z,77.37
2017-09-14T17:33:08.701Z,77.86
2017-09-14T17:35:39.244Z,79.03
2017-09-14T17:38:08.678Z,78.36
2017-09-14T17:40:39.473Z,77.85
2017-09-14T17:43:09.644Z,78.12
2017-09-14T17:45:39.361Z,79.67
2017-09-14T17:48:10.080Z,79.83
2017-09-14T17:50:39.773Z,81.23
2017-09-14T17:53:10.486Z,81.54
2017-09-14T17:55:39.694Z,83.38
2017-09-14T17:58:10.524Z,83.96
2017-09-14T18:00:39.847Z,84.69
2017-09-14T18:03:09.148Z,85.77
2017-09-14T18:05:40.476Z,86.42
2017-09-14T18:08:09.923Z,85.99
2017-09-14T18:10:39.172Z,86.32
2017-09-14T18:13:08.939Z,86.27
2017-09-14T18:15:52.783Z,86.38
2017-09-14T18:18:32.875Z,86.08
2017-09-14T18:21:06.299Z,85.54
2017-09-14T18:23:37.235Z,85.23
2017-09-14T18:26:07.209Z,84.87
2017-09-14T18:28:38.435Z,83.55
2017-09-14T18:31:07.977Z,83.64
2017-09-14T18:33:38.152Z,84.21
2017-09-14T18:36:07.327Z,83.63
2017-09-14T18:38:39.253Z,85.10
2017-09-14T18:41:08.875Z,84.26
2017-09-14T18:43:38.430Z,84.74
2017-09-14T18:46:07.943Z,84.39
2017-09-14T18:48:40.519Z,84.67
2017-09-14T18:51:10.420Z,83.12
2017-09-14T18:53:39.712Z,83.94
2017-09-14T18:56:08.923Z,83.07
2017-09-14T18:58:38.936Z,83.38
2017-09-14T19:01:08.240Z,83.33
2017-09-14T19:03:38.666Z,83.91
2017-09-14T19:06:08.228Z,84.30
2017-09-14T19:08:39.202Z,84.26
2017-09-14T19:11:08.440Z,84.77
2017-09-14T19:13:38.889Z,84.62
2017-09-14T19:16:08.095Z,85.69
2017-09-14T19:18:38.676Z,85.53
2017-09-14T19:21:08.304Z,84.88
2017-09-14T19:23:38.052Z,85.10
2017-09-14T19:26:07.680Z,85.91
2017-09-14T19:28:37.392Z,85.95
2017-09-14T19:31:06.623Z,85.28
2017-09-14T19:33:36.031Z,85.21
2017-09-14T19:36:05.888Z,84.64
2017-09-14T19:38:37.724Z,84.74
2017-09-14T19:41:07.890Z,84.57
2017-09-14T19:44:39.664Z,85.37
2017-09-14T19:47:09.021Z,83.24
2017-09-14T19:49:38.771Z,84.72
2017-09-14T19:52:08.400Z,83.68
2017-09-14T19:54:38.828Z,84.06
2017-09-14T19:57:08.794Z,83.16
2017-09-14T19:59:38.712Z,82.76
2017-09-14T20:02:08.661Z,83.33
2017-09-14T20:04:38.979Z,83.52
2017-09-14T20:07:09.933Z,82.89
2017-09-14T20:09:39.180Z,83.62
2017-09-14T20:12:08.969Z,83.64
2017-09-14T20:14:38.432Z,83.61
2017-09-14T20:17:07.897Z,83.51
2017-09-14T20:19:38.840Z,83.55
2017-09-14T20:22:08.163Z,84.01
2017-09-14T20:24:39.187Z,83.59
2017-09-14T20:27:10.023Z,83.73
2017-09-14T20:29:43.689Z,82.68
2017-09-14T20:32:14.752Z,82.41
2017-09-14T20:34:46.223Z,82.30
2017-09-14T20:37:16.307Z,81.93
2017-09-14T20:39:47.164Z,82.14
2017-09-14T20:42:19.849Z,82.66
2017-09-14T20:44:49.508Z,82.16
2017-09-14T20:47:31.823Z,83.01
2017-09-14T20:50:01.200Z,82.55
2017-09-14T20:52:30.529Z,83.20
2017-09-14T20:55:00.424Z,82.29
2017-09-14T20:57:29.712Z,83.26
2017-09-14T20:59:58.935Z,83.50
2017-09-14T21:02:28.503Z,82.92
2017-09-14T21:04:57.723Z,83.02
2017-09-14T21:07:26.942Z,82.95
2017-09-14T21:09:57.157Z,83.50
2017-09-14T21:12:26.344Z,84.60
2017-09-14T21:14:55.772Z,84.41
2017-09-14T21:17:25.302Z,84.19
2017-09-14T21:19:54.615Z,83.33
2017-09-14T21:22:23.979Z,83.43
2017-09-14T21:24:53.587Z,83.83
2017-09-14T21:27:23.211Z,83.74
2017-09-14T21:29:52.580Z,84.10
2017-09-14T21:32:22.535Z,84.04
2017-09-14T21:34:51.952Z,84.04
2017-09-14T21:37:21.147Z,84.33
2017-09-14T21:39:50.849Z,84.21
2017-09-14T21:42:20.124Z,84.79
2017-09-14T21:44:49.467Z,85.28
2017-09-14T21:47:19.108Z,85.53
2017-09-14T21:49:48.419Z,85.77
2017-09-14T21:52:17.664Z,85.23
2017-09-14T21:54:47.464Z,85.34
2017-09-14T21:57:16.757Z,84.52
2017-09-14T21:59:45.981Z,84.42
2017-09-14T22:02:15.584Z,85.17
2017-09-14T22:04:44.819Z,86.16
2017-09-14T22:07:17.746Z,85.87
2017-09-14T22:09:47.427Z,87.17
2017-09-14T22:12:16.696Z,87.17
2017-09-14T22:14:45.905Z,86.95
2017-09-14T22:17:15.687Z,86.85
2017-09-14T22:19:45.530Z,86.74
2017-09-14T22:22:14.802Z,86.54
2017-09-14T22:24:44.841Z,86.79
2017-09-14T22:27:14.130Z,86.90
2017-09-14T22:29:43.328Z,86.59
2017-09-14T22:32:12.944Z,86.03
2017-09-14T22:34:42.111Z,86.47
2017-09-14T22:37:11.779Z,86.44
2017-09-14T22:39:41.579Z,86.37
2017-09-14T22:42:11.192Z,86.40
2017-09-14T22:44:40.611Z,86.22
2017-09-14T22:47:10.457Z,86.10
2017-09-14T22:49:39.912Z,86.44
2017-09-14T22:52:09.392Z,86.33
2017-09-14T22:54:39.307Z,85.82
2017-09-14T22:57:08.812Z,86.59
2017-09-14T22:59:39.155Z,87.24
2017-09-14T23:02:09.152Z,88.01
2017-09-14T23:04:39.788Z,87.99
2017-09-14T23:07:09.071Z,87.67
2017-09-14T23:09:40.833Z,87.70
2017-09-14T23:12:10.828Z,87.52
2017-09-14T23:14:40.168Z,87.78
2017-09-14T23:17:10.157Z,87.94
2017-09-14T23:19:39.784Z,88.21
2017-09-14T23:22:09.578Z,88.28
2017-09-14T23:24:39.366Z,88.01
2017-09-14T23:27:08.887Z,87.65
2017-09-14T23:29:39.387Z,88.06
2017-09-14T23:32:09.340Z,88.00
2017-09-14T23:34:38.812Z,88.26
2017-09-14T23:37:08.957Z,87.93
2017-09-14T23:39:39.584Z,88.06
2017-09-14T23:42:08.920Z,87.65
2017-09-14T23:44:38.867Z,87.63
2017-09-14T23:47:08.676Z,87.36
2017-09-14T23:49:38.548Z,87.67
2017-09-14T23:52:08.342Z,87.45
2017-09-14T23:54:38.832Z,88.17
2017-09-14T23:57:11.219Z,87.87
2017-09-14T23:59:41.076Z,87.44
